sensor_id;sensor_type;location;lat;lon;timestamp;P1;durP1;ratioP1;P2;durP2;ratioP2
80985;SDS011;70451;51.226;6.412;2023-11-19T00:00:54;3.10;;;1.67;;
80985;SDS011;70451;51.226;6.412;2023-11-19T00:03:09;2.67;;;1.52;;
80985;SDS011;70451;51.226;6.412;2023-11-19T00:05:28;2.13;;;1.63;;
80985;SDS011;70451;51.226;6.412;2023-11-19T00:07:43;2.70;;;1.55;;
80985;SDS011;70451;51.226;6.412;2023-11-19T00:09:59;2.67;;;1.58;;
80985;SDS011;70451;51.226;6.412;2023-11-19T00:12:24;2.20;;;1.40;;
80985;SDS011;70451;51.226;6.412;2023-11-19T00:14:40;1.90;;;1.60;;
80985;SDS011;70451;51.226;6.412;2023-11-19T00:16:56;2.35;;;1.67;;
80985;SDS011;70451;51.226;6.412;2023-11-19T00:19:11;1.98;;;1.58;;
80985;SDS011;70451;51.226;6.412;2023-11-19T00:21:26;2.92;;;1.98;;
80985;SDS011;70451;51.226;6.412;2023-11-19T00:23:45;2.60;;;1.92;;
80985;SDS011;70451;51.226;6.412;2023-11-19T00:26:00;2.58;;;1.83;;
80985;SDS011;70451;51.226;6.412;2023-11-19T00:28:15;3.38;;;2.33;;
80985;SDS011;70451;51.226;6.412;2023-11-19T00:30:30;2.50;;;1.60;;
80985;SDS011;70451;51.226;6.412;2023-11-19T00:32:46;2.25;;;1.65;;
80985;SDS011;70451;51.226;6.412;2023-11-19T00:35:01;3.38;;;1.98;;
80985;SDS011;70451;51.226;6.412;2023-11-19T00:37:17;3.95;;;1.90;;
80985;SDS011;70451;51.226;6.412;2023-11-19T00:39:33;2.67;;;1.80;;
80985;SDS011;70451;51.226;6.412;2023-11-19T00:41:48;2.95;;;1.65;;
80985;SDS011;70451;51.226;6.412;2023-11-19T00:44:03;2.55;;;1.73;;
80985;SDS011;70451;51.226;6.412;2023-11-19T00:46:19;2.42;;;1.67;;
80985;SDS011;70451;51.226;6.412;2023-11-19T00:48:34;2.75;;;1.77;;
80985;SDS011;70451;51.226;6.412;2023-11-19T00:50:50;4.43;;;1.88;;
80985;SDS011;70451;51.226;6.412;2023-11-19T00:53:05;2.90;;;1.30;;
80985;SDS011;70451;51.226;6.412;2023-11-19T00:55:20;1.77;;;1.35;;
80985;SDS011;70451;51.226;6.412;2023-11-19T00:57:36;2.00;;;1.42;;
80985;SDS011;70451;51.226;6.412;2023-11-19T00:59:51;3.42;;;1.40;;
80985;SDS011;70451;51.226;6.412;2023-11-19T01:02:06;1.88;;;1.17;;
80985;SDS011;70451;51.226;6.412;2023-11-19T01:04:22;2.65;;;1.42;;
80985;SDS011;70451;51.226;6.412;2023-11-19T01:06:39;2.45;;;1.20;;
80985;SDS011;70451;51.226;6.412;2023-11-19T01:08:54;2.42;;;1.60;;
80985;SDS011;70451;51.226;6.412;2023-11-19T01:11:21;1.35;;;1.00;;
80985;SDS011;70451;51.226;6.412;2023-11-19T01:13:36;2.78;;;1.30;;
80985;SDS011;70451;51.226;6.412;2023-11-19T01:15:52;1.50;;;1.00;;
80985;SDS011;70451;51.226;6.412;2023-11-19T01:18:07;2.00;;;0.90;;
80985;SDS011;70451;51.226;6.412;2023-11-19T01:20:24;2.92;;;1.30;;
80985;SDS011;70451;51.226;6.412;2023-11-19T01:22:39;2.40;;;1.20;;
80985;SDS011;70451;51.226;6.412;2023-11-19T01:24:55;1.75;;;1.15;;
80985;SDS011;70451;51.226;6.412;2023-11-19T01:27:10;5.50;;;1.02;;
80985;SDS011;70451;51.226;6.412;2023-11-19T01:29:26;2.63;;;1.20;;
80985;SDS011;70451;51.226;6.412;2023-11-19T01:31:42;1.17;;;0.90;;
80985;SDS011;70451;51.226;6.412;2023-11-19T01:33:58;2.80;;;1.17;;
80985;SDS011;70451;51.226;6.412;2023-11-19T01:36:13;2.45;;;1.02;;
80985;SDS011;70451;51.226;6.412;2023-11-19T01:38:29;1.90;;;1.17;;
80985;SDS011;70451;51.226;6.412;2023-11-19T01:40:44;2.38;;;1.38;;
80985;SDS011;70451;51.226;6.412;2023-11-19T01:42:59;1.90;;;1.33;;
80985;SDS011;70451;51.226;6.412;2023-11-19T01:45:21;2.25;;;1.15;;
80985;SDS011;70451;51.226;6.412;2023-11-19T01:47:39;2.10;;;1.25;;
80985;SDS011;70451;51.226;6.412;2023-11-19T01:49:56;1.85;;;1.08;;
80985;SDS011;70451;51.226;6.412;2023-11-19T01:52:11;1.92;;;1.23;;
80985;SDS011;70451;51.226;6.412;2023-11-19T01:54:27;2.20;;;1.33;;
80985;SDS011;70451;51.226;6.412;2023-11-19T01:56:43;4.70;;;1.50;;
80985;SDS011;70451;51.226;6.412;2023-11-19T01:58:59;4.28;;;1.23;;
80985;SDS011;70451;51.226;6.412;2023-11-19T02:01:15;2.17;;;1.10;;
80985;SDS011;70451;51.226;6.412;2023-11-19T02:03:31;3.92;;;1.50;;
80985;SDS011;70451;51.226;6.412;2023-11-19T02:05:48;2.60;;;1.70;;
80985;SDS011;70451;51.226;6.412;2023-11-19T02:08:06;4.50;;;1.73;;
80985;SDS011;70451;51.226;6.412;2023-11-19T02:10:22;2.00;;;1.13;;
80985;SDS011;70451;51.226;6.412;2023-11-19T02:12:40;4.88;;;1.33;;
80985;SDS011;70451;51.226;6.412;2023-11-19T02:14:57;3.67;;;1.30;;
80985;SDS011;70451;51.226;6.412;2023-11-19T02:17:29;2.80;;;1.42;;
80985;SDS011;70451;51.226;6.412;2023-11-19T02:19:49;2.38;;;1.42;;
80985;SDS011;70451;51.226;6.412;2023-11-19T02:22:04;4.32;;;1.60;;
80985;SDS011;70451;51.226;6.412;2023-11-19T02:24:20;6.07;;;1.85;;
80985;SDS011;70451;51.226;6.412;2023-11-19T02:26:48;2.42;;;1.83;;
80985;SDS011;70451;51.226;6.412;2023-11-19T02:29:11;4.45;;;1.90;;
80985;SDS011;70451;51.226;6.412;2023-11-19T02:31:28;3.47;;;2.00;;
80985;SDS011;70451;51.226;6.412;2023-11-19T02:33:43;2.72;;;1.77;;
80985;SDS011;70451;51.226;6.412;2023-11-19T02:35:58;4.15;;;1.80;;
80985;SDS011;70451;51.226;6.412;2023-11-19T02:38:14;6.43;;;1.98;;
80985;SDS011;70451;51.226;6.412;2023-11-19T02:40:30;5.25;;;1.88;;
80985;SDS011;70451;51.226;6.412;2023-11-19T02:42:45;5.90;;;2.08;;
80985;SDS011;70451;51.226;6.412;2023-11-19T02:45:01;4.22;;;1.55;;
80985;SDS011;70451;51.226;6.412;2023-11-19T02:47:17;3.58;;;1.70;;
80985;SDS011;70451;51.226;6.412;2023-11-19T02:49:32;2.83;;;1.58;;
80985;SDS011;70451;51.226;6.412;2023-11-19T02:51:47;3.42;;;1.80;;
80985;SDS011;70451;51.226;6.412;2023-11-19T02:54:03;2.25;;;1.80;;
80985;SDS011;70451;51.226;6.412;2023-11-19T02:56:19;8.73;;;1.75;;
80985;SDS011;70451;51.226;6.412;2023-11-19T02:58:42;4.63;;;1.40;;
80985;SDS011;70451;51.226;6.412;2023-11-19T03:00:59;4.88;;;1.70;;
80985;SDS011;70451;51.226;6.412;2023-11-19T03:03:24;7.38;;;1.65;;
80985;SDS011;70451;51.226;6.412;2023-11-19T03:05:46;4.80;;;1.55;;
80985;SDS011;70451;51.226;6.412;2023-11-19T03:08:02;6.47;;;1.85;;
80985;SDS011;70451;51.226;6.412;2023-11-19T03:10:18;4.00;;;1.67;;
80985;SDS011;70451;51.226;6.412;2023-11-19T03:12:33;4.85;;;1.77;;
80985;SDS011;70451;51.226;6.412;2023-11-19T03:14:49;4.37;;;1.93;;
80985;SDS011;70451;51.226;6.412;2023-11-19T03:17:05;4.38;;;2.00;;
80985;SDS011;70451;51.226;6.412;2023-11-19T03:19:21;10.77;;;2.00;;
80985;SDS011;70451;51.226;6.412;2023-11-19T03:21:36;11.32;;;1.80;;
80985;SDS011;70451;51.226;6.412;2023-11-19T03:23:51;8.57;;;2.10;;
80985;SDS011;70451;51.226;6.412;2023-11-19T03:26:07;4.95;;;1.85;;
80985;SDS011;70451;51.226;6.412;2023-11-19T03:28:23;8.60;;;2.10;;
80985;SDS011;70451;51.226;6.412;2023-11-19T03:30:38;8.88;;;1.85;;
80985;SDS011;70451;51.226;6.412;2023-11-19T03:32:54;6.68;;;2.05;;
80985;SDS011;70451;51.226;6.412;2023-11-19T03:35:10;5.35;;;1.63;;
80985;SDS011;70451;51.226;6.412;2023-11-19T03:37:27;7.32;;;1.85;;
80985;SDS011;70451;51.226;6.412;2023-11-19T03:39:42;9.02;;;2.10;;
80985;SDS011;70451;51.226;6.412;2023-11-19T03:41:57;7.57;;;1.58;;
80985;SDS011;70451;51.226;6.412;2023-11-19T03:44:13;10.85;;;2.40;;
80985;SDS011;70451;51.226;6.412;2023-11-19T03:46:28;4.78;;;1.80;;
80985;SDS011;70451;51.226;6.412;2023-11-19T03:48:46;7.60;;;1.45;;
80985;SDS011;70451;51.226;6.412;2023-11-19T03:51:02;16.67;;;2.40;;
80985;SDS011;70451;51.226;6.412;2023-11-19T03:53:17;8.05;;;1.60;;
80985;SDS011;70451;51.226;6.412;2023-11-19T03:55:33;7.53;;;1.95;;
80985;SDS011;70451;51.226;6.412;2023-11-19T03:57:49;8.13;;;1.85;;
80985;SDS011;70451;51.226;6.412;2023-11-19T04:00:04;10.98;;;1.58;;
80985;SDS011;70451;51.226;6.412;2023-11-19T04:02:28;11.15;;;2.40;;
80985;SDS011;70451;51.226;6.412;2023-11-19T04:04:44;7.03;;;2.05;;
80985;SDS011;70451;51.226;6.412;2023-11-19T04:07:00;4.82;;;2.08;;
80985;SDS011;70451;51.226;6.412;2023-11-19T04:09:17;14.48;;;1.88;;
80985;SDS011;70451;51.226;6.412;2023-11-19T04:11:33;11.32;;;1.42;;
80985;SDS011;70451;51.226;6.412;2023-11-19T04:13:48;8.20;;;2.08;;
80985;SDS011;70451;51.226;6.412;2023-11-19T04:16:03;6.93;;;2.13;;
80985;SDS011;70451;51.226;6.412;2023-11-19T04:18:19;7.07;;;2.38;;
80985;SDS011;70451;51.226;6.412;2023-11-19T04:20:34;9.73;;;2.03;;
80985;SDS011;70451;51.226;6.412;2023-11-19T04:22:50;10.15;;;1.60;;
80985;SDS011;70451;51.226;6.412;2023-11-19T04:25:06;8.70;;;1.52;;
80985;SDS011;70451;51.226;6.412;2023-11-19T04:27:22;8.88;;;2.55;;
80985;SDS011;70451;51.226;6.412;2023-11-19T04:29:37;12.02;;;1.90;;
80985;SDS011;70451;51.226;6.412;2023-11-19T04:31:52;8.13;;;1.40;;
80985;SDS011;70451;51.226;6.412;2023-11-19T04:34:07;7.15;;;1.70;;
80985;SDS011;70451;51.226;6.412;2023-11-19T04:36:23;9.20;;;1.90;;
80985;SDS011;70451;51.226;6.412;2023-11-19T04:38:39;7.05;;;1.42;;
80985;SDS011;70451;51.226;6.412;2023-11-19T04:40:55;10.38;;;2.20;;
80985;SDS011;70451;51.226;6.412;2023-11-19T04:43:12;11.30;;;1.88;;
80985;SDS011;70451;51.226;6.412;2023-11-19T04:45:27;8.98;;;1.73;;
80985;SDS011;70451;51.226;6.412;2023-11-19T04:47:43;11.60;;;1.45;;
80985;SDS011;70451;51.226;6.412;2023-11-19T04:49:59;15.77;;;1.98;;
80985;SDS011;70451;51.226;6.412;2023-11-19T04:52:14;6.25;;;2.40;;
80985;SDS011;70451;51.226;6.412;2023-11-19T04:54:29;15.05;;;2.67;;
80985;SDS011;70451;51.226;6.412;2023-11-19T04:56:45;8.65;;;2.20;;
80985;SDS011;70451;51.226;6.412;2023-11-19T04:59:01;15.10;;;1.83;;
80985;SDS011;70451;51.226;6.412;2023-11-19T05:01:17;15.02;;;2.63;;
80985;SDS011;70451;51.226;6.412;2023-11-19T05:03:32;4.72;;;1.50;;
80985;SDS011;70451;51.226;6.412;2023-11-19T05:05:48;10.80;;;2.28;;
80985;SDS011;70451;51.226;6.412;2023-11-19T05:08:03;10.85;;;1.75;;
80985;SDS011;70451;51.226;6.412;2023-11-19T05:10:20;7.78;;;1.55;;
80985;SDS011;70451;51.226;6.412;2023-11-19T05:12:35;12.55;;;1.92;;
80985;SDS011;70451;51.226;6.412;2023-11-19T05:14:51;8.05;;;1.90;;
80985;SDS011;70451;51.226;6.412;2023-11-19T05:17:06;10.90;;;1.70;;
80985;SDS011;70451;51.226;6.412;2023-11-19T05:19:22;17.58;;;2.08;;
80985;SDS011;70451;51.226;6.412;2023-11-19T05:21:38;18.67;;;3.33;;
80985;SDS011;70451;51.226;6.412;2023-11-19T05:23:53;13.90;;;1.90;;
80985;SDS011;70451;51.226;6.412;2023-11-19T05:26:09;16.13;;;2.13;;
80985;SDS011;70451;51.226;6.412;2023-11-19T05:28:25;4.63;;;1.27;;
80985;SDS011;70451;51.226;6.412;2023-11-19T05:30:41;16.95;;;1.63;;
80985;SDS011;70451;51.226;6.412;2023-11-19T05:32:56;7.57;;;1.42;;
80985;SDS011;70451;51.226;6.412;2023-11-19T05:35:11;8.13;;;1.55;;
80985;SDS011;70451;51.226;6.412;2023-11-19T05:37:27;11.40;;;1.85;;
80985;SDS011;70451;51.226;6.412;2023-11-19T05:39:42;10.10;;;1.92;;
80985;SDS011;70451;51.226;6.412;2023-11-19T05:41:57;8.27;;;1.80;;
80985;SDS011;70451;51.226;6.412;2023-11-19T05:44:13;6.95;;;2.47;;
80985;SDS011;70451;51.226;6.412;2023-11-19T05:46:28;9.63;;;2.20;;
80985;SDS011;70451;51.226;6.412;2023-11-19T05:48:43;14.57;;;1.77;;
80985;SDS011;70451;51.226;6.412;2023-11-19T05:51:00;14.80;;;2.40;;
80985;SDS011;70451;51.226;6.412;2023-11-19T05:53:15;12.00;;;2.58;;
80985;SDS011;70451;51.226;6.412;2023-11-19T05:55:33;12.13;;;1.85;;
80985;SDS011;70451;51.226;6.412;2023-11-19T05:57:49;14.45;;;1.80;;
80985;SDS011;70451;51.226;6.412;2023-11-19T06:00:07;7.82;;;1.75;;
80985;SDS011;70451;51.226;6.412;2023-11-19T06:02:30;9.63;;;1.60;;
80985;SDS011;70451;51.226;6.412;2023-11-19T06:04:47;6.95;;;1.73;;
80985;SDS011;70451;51.226;6.412;2023-11-19T06:07:04;5.15;;;2.03;;
80985;SDS011;70451;51.226;6.412;2023-11-19T06:09:20;11.70;;;1.95;;
80985;SDS011;70451;51.226;6.412;2023-11-19T06:11:37;12.65;;;2.30;;
80985;SDS011;70451;51.226;6.412;2023-11-19T06:13:53;8.05;;;1.50;;
80985;SDS011;70451;51.226;6.412;2023-11-19T06:16:08;7.63;;;1.80;;
80985;SDS011;70451;51.226;6.412;2023-11-19T06:18:23;8.10;;;1.80;;
80985;SDS011;70451;51.226;6.412;2023-11-19T06:20:39;2.17;;;1.02;;
80985;SDS011;70451;51.226;6.412;2023-11-19T06:22:55;14.65;;;2.47;;
80985;SDS011;70451;51.226;6.412;2023-11-19T06:25:11;14.38;;;2.00;;
80985;SDS011;70451;51.226;6.412;2023-11-19T06:27:29;15.75;;;2.15;;
80985;SDS011;70451;51.226;6.412;2023-11-19T06:29:44;13.00;;;2.63;;
80985;SDS011;70451;51.226;6.412;2023-11-19T06:32:00;14.18;;;2.28;;
80985;SDS011;70451;51.226;6.412;2023-11-19T06:34:15;12.43;;;2.00;;
80985;SDS011;70451;51.226;6.412;2023-11-19T06:36:30;6.88;;;1.77;;
80985;SDS011;70451;51.226;6.412;2023-11-19T06:38:46;16.00;;;2.20;;
80985;SDS011;70451;51.226;6.412;2023-11-19T06:41:01;11.70;;;2.03;;
80985;SDS011;70451;51.226;6.412;2023-11-19T06:43:16;13.40;;;2.20;;
80985;SDS011;70451;51.226;6.412;2023-11-19T06:45:32;12.52;;;2.22;;
80985;SDS011;70451;51.226;6.412;2023-11-19T06:47:48;16.83;;;2.20;;
80985;SDS011;70451;51.226;6.412;2023-11-19T06:50:03;10.25;;;2.03;;
80985;SDS011;70451;51.226;6.412;2023-11-19T06:52:20;9.88;;;1.52;;
80985;SDS011;70451;51.226;6.412;2023-11-19T06:54:36;15.55;;;2.30;;
80985;SDS011;70451;51.226;6.412;2023-11-19T06:56:52;18.42;;;2.28;;
80985;SDS011;70451;51.226;6.412;2023-11-19T06:59:08;6.82;;;1.92;;
80985;SDS011;70451;51.226;6.412;2023-11-19T07:01:24;6.15;;;1.60;;
80985;SDS011;70451;51.226;6.412;2023-11-19T07:03:39;9.90;;;2.88;;
80985;SDS011;70451;51.226;6.412;2023-11-19T07:05:55;12.90;;;1.70;;
80985;SDS011;70451;51.226;6.412;2023-11-19T07:08:10;13.27;;;1.95;;
80985;SDS011;70451;51.226;6.412;2023-11-19T07:10:26;17.45;;;2.78;;
80985;SDS011;70451;51.226;6.412;2023-11-19T07:12:41;10.95;;;1.52;;
80985;SDS011;70451;51.226;6.412;2023-11-19T07:14:57;11.25;;;2.33;;
80985;SDS011;70451;51.226;6.412;2023-11-19T07:17:12;8.95;;;2.58;;
80985;SDS011;70451;51.226;6.412;2023-11-19T07:19:27;10.85;;;2.33;;
80985;SDS011;70451;51.226;6.412;2023-11-19T07:21:43;12.50;;;2.45;;
80985;SDS011;70451;51.226;6.412;2023-11-19T07:24:02;17.55;;;2.67;;
80985;SDS011;70451;51.226;6.412;2023-11-19T07:26:17;14.52;;;1.88;;
80985;SDS011;70451;51.226;6.412;2023-11-19T07:28:32;6.88;;;1.73;;
80985;SDS011;70451;51.226;6.412;2023-11-19T07:30:48;11.52;;;2.42;;
80985;SDS011;70451;51.226;6.412;2023-11-19T07:33:03;11.32;;;1.90;;
80985;SDS011;70451;51.226;6.412;2023-11-19T07:35:21;15.82;;;1.95;;
80985;SDS011;70451;51.226;6.412;2023-11-19T07:37:36;13.50;;;2.45;;
80985;SDS011;70451;51.226;6.412;2023-11-19T07:39:52;9.15;;;2.30;;
80985;SDS011;70451;51.226;6.412;2023-11-19T07:42:07;8.75;;;1.80;;
80985;SDS011;70451;51.226;6.412;2023-11-19T07:44:24;20.80;;;2.55;;
80985;SDS011;70451;51.226;6.412;2023-11-19T07:46:39;8.15;;;1.77;;
80985;SDS011;70451;51.226;6.412;2023-11-19T07:48:57;21.95;;;2.97;;
80985;SDS011;70451;51.226;6.412;2023-11-19T07:51:12;12.88;;;2.05;;
80985;SDS011;70451;51.226;6.412;2023-11-19T07:53:28;14.73;;;2.35;;
80985;SDS011;70451;51.226;6.412;2023-11-19T07:55:43;12.50;;;1.98;;
80985;SDS011;70451;51.226;6.412;2023-11-19T07:57:59;16.85;;;2.28;;
80985;SDS011;70451;51.226;6.412;2023-11-19T08:00:14;6.53;;;1.65;;
80985;SDS011;70451;51.226;6.412;2023-11-19T08:02:30;13.93;;;2.45;;
80985;SDS011;70451;51.226;6.412;2023-11-19T08:04:45;6.18;;;1.88;;
80985;SDS011;70451;51.226;6.412;2023-11-19T08:07:01;12.30;;;3.00;;
80985;SDS011;70451;51.226;6.412;2023-11-19T08:09:16;19.45;;;2.85;;
80985;SDS011;70451;51.226;6.412;2023-11-19T08:11:33;8.60;;;1.77;;
80985;SDS011;70451;51.226;6.412;2023-11-19T08:13:48;8.48;;;1.73;;
80985;SDS011;70451;51.226;6.412;2023-11-19T08:16:04;13.68;;;2.78;;
80985;SDS011;70451;51.226;6.412;2023-11-19T08:18:19;12.88;;;2.35;;
80985;SDS011;70451;51.226;6.412;2023-11-19T08:20:35;11.38;;;1.90;;
80985;SDS011;70451;51.226;6.412;2023-11-19T08:22:50;14.75;;;2.80;;
80985;SDS011;70451;51.226;6.412;2023-11-19T08:25:05;15.27;;;1.92;;
80985;SDS011;70451;51.226;6.412;2023-11-19T08:27:21;6.80;;;1.58;;
80985;SDS011;70451;51.226;6.412;2023-11-19T08:29:41;11.32;;;2.25;;
80985;SDS011;70451;51.226;6.412;2023-11-19T08:31:57;22.55;;;3.45;;
80985;SDS011;70451;51.226;6.412;2023-11-19T08:34:12;11.52;;;1.73;;
80985;SDS011;70451;51.226;6.412;2023-11-19T08:36:27;10.10;;;2.08;;
80985;SDS011;70451;51.226;6.412;2023-11-19T08:38:43;13.18;;;1.88;;
80985;SDS011;70451;51.226;6.412;2023-11-19T08:40:58;6.20;;;1.75;;
80985;SDS011;70451;51.226;6.412;2023-11-19T08:43:15;10.98;;;1.92;;
80985;SDS011;70451;51.226;6.412;2023-11-19T08:45:31;13.05;;;1.92;;
80985;SDS011;70451;51.226;6.412;2023-11-19T08:47:46;11.52;;;2.25;;
80985;SDS011;70451;51.226;6.412;2023-11-19T08:50:02;18.92;;;2.53;;
80985;SDS011;70451;51.226;6.412;2023-11-19T08:52:19;18.88;;;2.63;;
80985;SDS011;70451;51.226;6.412;2023-11-19T08:54:34;13.18;;;2.25;;
80985;SDS011;70451;51.226;6.412;2023-11-19T08:56:49;16.45;;;2.97;;
80985;SDS011;70451;51.226;6.412;2023-11-19T08:59:05;13.50;;;1.90;;
80985;SDS011;70451;51.226;6.412;2023-11-19T09:01:21;15.27;;;2.13;;
80985;SDS011;70451;51.226;6.412;2023-11-19T09:03:37;16.20;;;2.42;;
80985;SDS011;70451;51.226;6.412;2023-11-19T09:05:52;21.83;;;3.03;;
80985;SDS011;70451;51.226;6.412;2023-11-19T09:08:08;11.10;;;1.77;;
80985;SDS011;70451;51.226;6.412;2023-11-19T09:10:23;17.52;;;2.75;;
80985;SDS011;70451;51.226;6.412;2023-11-19T09:12:38;14.88;;;2.92;;
80985;SDS011;70451;51.226;6.412;2023-11-19T09:14:54;22.88;;;2.80;;
80985;SDS011;70451;51.226;6.412;2023-11-19T09:17:09;14.23;;;1.88;;
80985;SDS011;70451;51.226;6.412;2023-11-19T09:19:25;12.55;;;2.47;;
80985;SDS011;70451;51.226;6.412;2023-11-19T09:21:41;11.27;;;2.30;;
80985;SDS011;70451;51.226;6.412;2023-11-19T09:23:56;14.10;;;2.20;;
80985;SDS011;70451;51.226;6.412;2023-11-19T09:26:12;10.35;;;2.03;;
80985;SDS011;70451;51.226;6.412;2023-11-19T09:28:28;16.33;;;2.90;;
80985;SDS011;70451;51.226;6.412;2023-11-19T09:30:43;21.50;;;3.00;;
80985;SDS011;70451;51.226;6.412;2023-11-19T09:32:58;16.88;;;2.83;;
80985;SDS011;70451;51.226;6.412;2023-11-19T09:35:14;14.98;;;2.67;;
80985;SDS011;70451;51.226;6.412;2023-11-19T09:37:31;17.33;;;2.58;;
80985;SDS011;70451;51.226;6.412;2023-11-19T09:39:46;12.48;;;2.63;;
80985;SDS011;70451;51.226;6.412;2023-11-19T09:42:02;17.55;;;2.50;;
80985;SDS011;70451;51.226;6.412;2023-11-19T09:44:18;13.35;;;2.33;;
80985;SDS011;70451;51.226;6.412;2023-11-19T09:46:34;12.00;;;2.40;;
80985;SDS011;70451;51.226;6.412;2023-11-19T09:48:51;13.60;;;2.72;;
80985;SDS011;70451;51.226;6.412;2023-11-19T09:51:10;21.17;;;2.40;;
80985;SDS011;70451;51.226;6.412;2023-11-19T09:53:26;13.70;;;2.47;;
80985;SDS011;70451;51.226;6.412;2023-11-19T09:55:41;14.23;;;2.35;;
80985;SDS011;70451;51.226;6.412;2023-11-19T09:57:57;20.80;;;3.60;;
80985;SDS011;70451;51.226;6.412;2023-11-19T10:00:16;14.18;;;2.47;;
80985;SDS011;70451;51.226;6.412;2023-11-19T10:02:34;16.30;;;2.30;;
80985;SDS011;70451;51.226;6.412;2023-11-19T10:04:52;11.77;;;2.67;;
80985;SDS011;70451;51.226;6.412;2023-11-19T10:07:08;16.67;;;2.55;;
80985;SDS011;70451;51.226;6.412;2023-11-19T10:09:23;14.20;;;2.63;;
80985;SDS011;70451;51.226;6.412;2023-11-19T10:11:39;15.90;;;2.67;;
80985;SDS011;70451;51.226;6.412;2023-11-19T10:13:54;17.52;;;2.30;;
80985;SDS011;70451;51.226;6.412;2023-11-19T10:16:10;13.60;;;2.10;;
80985;SDS011;70451;51.226;6.412;2023-11-19T10:18:27;13.65;;;2.70;;
80985;SDS011;70451;51.226;6.412;2023-11-19T10:20:43;23.05;;;2.55;;
80985;SDS011;70451;51.226;6.412;2023-11-19T10:22:59;15.63;;;2.45;;
80985;SDS011;70451;51.226;6.412;2023-11-19T10:25:27;13.05;;;2.65;;
80985;SDS011;70451;51.226;6.412;2023-11-19T10:27:43;19.67;;;3.03;;
80985;SDS011;70451;51.226;6.412;2023-11-19T10:29:59;15.13;;;2.58;;
80985;SDS011;70451;51.226;6.412;2023-11-19T10:32:14;15.00;;;2.97;;
80985;SDS011;70451;51.226;6.412;2023-11-19T10:34:30;15.60;;;2.42;;
80985;SDS011;70451;51.226;6.412;2023-11-19T10:36:45;12.27;;;2.65;;
80985;SDS011;70451;51.226;6.412;2023-11-19T10:39:00;14.25;;;2.97;;
80985;SDS011;70451;51.226;6.412;2023-11-19T10:41:26;14.75;;;2.40;;
80985;SDS011;70451;51.226;6.412;2023-11-19T10:43:45;5.68;;;1.83;;
80985;SDS011;70451;51.226;6.412;2023-11-19T10:46:08;14.48;;;2.55;;
80985;SDS011;70451;51.226;6.412;2023-11-19T10:48:28;11.20;;;2.13;;
80985;SDS011;70451;51.226;6.412;2023-11-19T10:50:44;13.80;;;2.70;;
80985;SDS011;70451;51.226;6.412;2023-11-19T10:53:01;12.68;;;2.42;;
80985;SDS011;70451;51.226;6.412;2023-11-19T10:55:16;8.57;;;2.10;;
80985;SDS011;70451;51.226;6.412;2023-11-19T10:57:37;17.65;;;2.30;;
80985;SDS011;70451;51.226;6.412;2023-11-19T10:59:55;13.65;;;2.50;;
80985;SDS011;70451;51.226;6.412;2023-11-19T11:02:19;14.50;;;2.38;;
80985;SDS011;70451;51.226;6.412;2023-11-19T11:04:39;11.05;;;2.58;;
80985;SDS011;70451;51.226;6.412;2023-11-19T11:06:57;6.85;;;1.65;;
80985;SDS011;70451;51.226;6.412;2023-11-19T11:09:13;6.35;;;1.95;;
80985;SDS011;70451;51.226;6.412;2023-11-19T11:11:31;4.30;;;1.70;;
80985;SDS011;70451;51.226;6.412;2023-11-19T11:13:47;6.65;;;1.90;;
80985;SDS011;70451;51.226;6.412;2023-11-19T11:16:02;14.70;;;2.20;;
80985;SDS011;70451;51.226;6.412;2023-11-19T11:18:21;9.52;;;2.50;;
80985;SDS011;70451;51.226;6.412;2023-11-19T11:20:38;10.23;;;2.28;;
80985;SDS011;70451;51.226;6.412;2023-11-19T11:23:00;13.60;;;2.05;;
80985;SDS011;70451;51.226;6.412;2023-11-19T11:25:52;11.85;;;2.53;;
80985;SDS011;70451;51.226;6.412;2023-11-19T11:30:48;11.57;;;2.80;;
80985;SDS011;70451;51.226;6.412;2023-11-19T11:33:22;10.02;;;2.25;;
80985;SDS011;70451;51.226;6.412;2023-11-19T11:38:37;11.60;;;2.20;;
80985;SDS011;70451;51.226;6.412;2023-11-19T11:41:14;8.43;;;2.15;;
80985;SDS011;70451;51.226;6.412;2023-11-19T11:43:43;11.82;;;1.90;;
80985;SDS011;70451;51.226;6.412;2023-11-19T11:46:03;8.00;;;2.05;;
80985;SDS011;70451;51.226;6.412;2023-11-19T11:48:19;8.85;;;2.00;;
80985;SDS011;70451;51.226;6.412;2023-11-19T11:50:35;13.32;;;3.15;;
80985;SDS011;70451;51.226;6.412;2023-11-19T11:55:27;8.45;;;1.70;;
80985;SDS011;70451;51.226;6.412;2023-11-19T11:58:06;6.13;;;1.70;;
80985;SDS011;70451;51.226;6.412;2023-11-19T12:00:40;9.63;;;2.13;;
80985;SDS011;70451;51.226;6.412;2023-11-19T12:02:57;5.85;;;1.95;;
80985;SDS011;70451;51.226;6.412;2023-11-19T12:05:14;7.25;;;1.65;;
80985;SDS011;70451;51.226;6.412;2023-11-19T12:07:30;11.93;;;2.22;;
80985;SDS011;70451;51.226;6.412;2023-11-19T12:09:51;7.25;;;2.15;;
80985;SDS011;70451;51.226;6.412;2023-11-19T12:19:47;9.70;;;1.88;;
80985;SDS011;70451;51.226;6.412;2023-11-19T12:22:07;10.23;;;2.25;;
80985;SDS011;70451;51.226;6.412;2023-11-19T12:24:25;8.38;;;1.77;;
80985;SDS011;70451;51.226;6.412;2023-11-19T12:26:41;16.75;;;3.17;;
80985;SDS011;70451;51.226;6.412;2023-11-19T12:28:58;6.93;;;1.63;;
80985;SDS011;70451;51.226;6.412;2023-11-19T12:31:14;11.90;;;1.80;;
80985;SDS011;70451;51.226;6.412;2023-11-19T12:33:30;13.20;;;1.60;;
80985;SDS011;70451;51.226;6.412;2023-11-19T12:35:46;10.93;;;1.83;;
80985;SDS011;70451;51.226;6.412;2023-11-19T12:38:02;7.10;;;2.22;;
80985;SDS011;70451;51.226;6.412;2023-11-19T12:40:24;9.57;;;2.33;;
80985;SDS011;70451;51.226;6.412;2023-11-19T12:42:40;8.57;;;2.20;;
80985;SDS011;70451;51.226;6.412;2023-11-19T12:44:56;7.80;;;2.15;;
80985;SDS011;70451;51.226;6.412;2023-11-19T12:47:11;8.40;;;2.22;;
80985;SDS011;70451;51.226;6.412;2023-11-19T12:49:26;13.65;;;3.00;;
80985;SDS011;70451;51.226;6.412;2023-11-19T12:51:42;8.95;;;2.28;;
80985;SDS011;70451;51.226;6.412;2023-11-19T12:53:57;8.25;;;2.65;;
80985;SDS011;70451;51.226;6.412;2023-11-19T12:56:13;7.93;;;1.85;;
80985;SDS011;70451;51.226;6.412;2023-11-19T13:00:47;5.55;;;2.08;;
80985;SDS011;70451;51.226;6.412;2023-11-19T13:03:02;9.77;;;2.30;;
80985;SDS011;70451;51.226;6.412;2023-11-19T13:05:22;6.25;;;1.98;;
80985;SDS011;70451;51.226;6.412;2023-11-19T13:07:43;9.55;;;2.17;;
80985;SDS011;70451;51.226;6.412;2023-11-19T13:10:02;11.57;;;2.55;;
80985;SDS011;70451;51.226;6.412;2023-11-19T13:12:17;12.90;;;2.00;;
80985;SDS011;70451;51.226;6.412;2023-11-19T13:14:36;6.72;;;1.83;;
80985;SDS011;70451;51.226;6.412;2023-11-19T13:16:53;10.88;;;2.25;;
80985;SDS011;70451;51.226;6.412;2023-11-19T13:19:09;9.32;;;2.33;;
80985;SDS011;70451;51.226;6.412;2023-11-19T13:21:25;10.25;;;2.20;;
80985;SDS011;70451;51.226;6.412;2023-11-19T13:23:40;8.10;;;2.13;;
80985;SDS011;70451;51.226;6.412;2023-11-19T13:25:55;7.03;;;2.17;;
80985;SDS011;70451;51.226;6.412;2023-11-19T13:28:10;7.03;;;1.70;;
80985;SDS011;70451;51.226;6.412;2023-11-19T13:30:26;8.40;;;1.80;;
80985;SDS011;70451;51.226;6.412;2023-11-19T13:32:42;11.93;;;1.90;;
80985;SDS011;70451;51.226;6.412;2023-11-19T13:34:59;14.75;;;2.70;;
80985;SDS011;70451;51.226;6.412;2023-11-19T13:37:15;8.95;;;2.28;;
80985;SDS011;70451;51.226;6.412;2023-11-19T13:39:31;9.65;;;2.30;;
80985;SDS011;70451;51.226;6.412;2023-11-19T13:41:46;8.20;;;2.28;;
80985;SDS011;70451;51.226;6.412;2023-11-19T13:44:01;7.43;;;2.05;;
80985;SDS011;70451;51.226;6.412;2023-11-19T13:46:17;6.78;;;2.33;;
80985;SDS011;70451;51.226;6.412;2023-11-19T13:48:32;9.10;;;2.40;;
80985;SDS011;70451;51.226;6.412;2023-11-19T13:50:47;11.48;;;2.30;;
80985;SDS011;70451;51.226;6.412;2023-11-19T13:53:03;7.47;;;1.65;;
80985;SDS011;70451;51.226;6.412;2023-11-19T13:55:19;9.02;;;2.10;;